createdAt,value
2018-12-03T00:03:49.094Z,3.70
2018-12-03T00:08:52.264Z,3.90
2018-12-03T00:13:55.406Z,3.00
2018-12-03T00:18:58.547Z,3.50
2018-12-03T00:24:01.691Z,2.60
2018-12-03T00:29:05.306Z,4.93
2018-12-03T00:34:08.439Z,3.43
2018-12-03T00:39:11.587Z,2.70
2018-12-03T00:44:14.726Z,3.63
2018-12-03T00:49:17.846Z,3.47
2018-12-03T00:54:20.945Z,3.00
2018-12-03T00:59:24.066Z,4.00
2018-12-03T01:04:27.159Z,3.00
2018-12-03T01:09:30.290Z,2.60
2018-12-03T01:14:33.450Z,3.10
2018-12-03T01:19:36.567Z,3.23
2018-12-03T01:24:39.702Z,3.27
2018-12-03T01:29:42.806Z,3.40
2018-12-03T01:34:45.919Z,2.37
2018-12-03T01:39:49.021Z,3.73
2018-12-03T01:44:52.133Z,2.50
2018-12-03T01:49:55.240Z,2.30
2018-12-03T01:54:58.348Z,3.10
2018-12-03T02:00:01.455Z,2.77
2018-12-03T02:05:04.886Z,3.30
2018-12-03T02:10:12.120Z,3.00
2018-12-03T02:15:16.062Z,2.60
2018-12-03T02:20:19.286Z,2.93
2018-12-03T02:25:22.390Z,3.73
2018-12-03T02:30:25.499Z,3.03
2018-12-03T02:35:28.643Z,3.33
2018-12-03T02:40:31.732Z,4.27
2018-12-03T02:45:34.851Z,3.80
2018-12-03T02:50:37.966Z,3.73
2018-12-03T02:55:41.082Z,4.03
2018-12-03T03:00:44.287Z,2.50
2018-12-03T03:05:47.405Z,3.50
2018-12-03T03:10:50.556Z,2.70
2018-12-03T03:15:53.683Z,3.20
2018-12-03T03:20:56.813Z,2.70
2018-12-03T03:25:59.935Z,3.33
2018-12-03T03:31:03.059Z,2.53
2018-12-03T03:36:06.179Z,2.30
2018-12-03T03:41:09.282Z,3.40
2018-12-03T03:46:12.508Z,3.73
2018-12-03T03:51:15.621Z,3.23
2018-12-03T03:56:18.818Z,2.43
2018-12-03T04:01:21.951Z,2.33
2018-12-03T04:06:25.056Z,2.67
2018-12-03T04:11:28.258Z,3.00
2018-12-03T04:16:31.379Z,2.50
2018-12-03T04:21:34.495Z,2.47
2018-12-03T04:26:37.607Z,2.90
2018-12-03T04:31:40.746Z,1.20
2018-12-03T04:36:43.854Z,0.73
2018-12-03T04:41:46.971Z,1.37
2018-12-03T04:46:50.080Z,0.80
2018-12-03T04:51:53.199Z,1.30
2018-12-03T04:56:56.306Z,0.57
2018-12-03T05:01:59.447Z,0.87
2018-12-03T05:07:02.559Z,0.67
2018-12-03T05:12:05.694Z,0.90
2018-12-03T05:17:08.811Z,1.03
2018-12-03T05:22:11.926Z,1.13
2018-12-03T05:27:15.039Z,1.93
2018-12-03T05:32:18.322Z,0.73
2018-12-03T05:37:21.457Z,0.73
2018-12-03T05:42:24.565Z,0.70
2018-12-03T05:47:27.691Z,0.73
2018-12-03T05:52:30.799Z,0.70
2018-12-03T05:57:33.914Z,0.60
2018-12-03T06:02:37.038Z,0.70
2018-12-03T06:07:40.154Z,0.60
2018-12-03T06:12:43.274Z,0.80
2018-12-03T06:17:47.170Z,0.93
2018-12-03T06:22:51.579Z,0.83
2018-12-03T06:27:54.713Z,0.80
2018-12-03T06:32:57.814Z,0.60
2018-12-03T06:38:01.907Z,0.70
2018-12-03T06:43:05.262Z,0.73
2018-12-03T06:48:13.678Z,0.50
2018-12-03T06:53:16.797Z,0.60
2018-12-03T06:58:19.937Z,0.53
2018-12-03T07:03:23.050Z,0.60
2018-12-03T07:08:26.184Z,1.33
2018-12-03T07:13:29.316Z,0.53
2018-12-03T07:18:32.422Z,0.70
2018-12-03T07:23:35.533Z,0.50
2018-12-03T07:28:38.643Z,0.63
2018-12-03T07:33:41.750Z,0.80
2018-12-03T07:38:44.862Z,0.70
2018-12-03T07:43:47.995Z,0.80
2018-12-03T07:48:51.155Z,0.90
2018-12-03T07:53:54.273Z,0.53
2018-12-03T07:58:57.389Z,0.70
2018-12-03T08:04:00.507Z,0.70
2018-12-03T08:09:04.112Z,0.73
2018-12-03T08:14:07.233Z,0.80
2018-12-03T08:19:10.355Z,0.60
2018-12-03T08:24:14.018Z,0.73
2018-12-03T08:29:17.266Z,0.60
2018-12-03T08:34:20.387Z,0.87
2018-12-03T08:39:23.504Z,1.10
2018-12-03T08:44:29.704Z,0.80
2018-12-03T08:49:32.815Z,0.60
2018-12-03T08:54:35.925Z,1.00
2018-12-03T08:59:39.055Z,0.80
2018-12-03T09:04:42.151Z,0.73
2018-12-03T09:09:45.275Z,0.87
2018-12-03T09:14:48.386Z,0.90
2018-12-03T09:19:51.498Z,0.80
2018-12-03T09:24:54.607Z,0.60
2018-12-03T09:29:58.774Z,0.80
2018-12-03T09:35:03.038Z,0.50
2018-12-03T09:40:10.126Z,0.53
2018-12-03T09:45:15.895Z,0.70
2018-12-03T09:50:24.066Z,0.60
2018-12-03T09:55:29.406Z,0.50
2018-12-03T10:00:32.529Z,0.60
2018-12-03T10:05:42.486Z,0.60
2018-12-03T10:10:49.590Z,0.77
2018-12-03T10:15:52.719Z,0.60
2018-12-03T10:20:57.450Z,0.50
2018-12-03T10:26:00.866Z,0.40
2018-12-03T10:31:04.023Z,0.40
2018-12-03T10:36:08.270Z,0.50
2018-12-03T10:41:24.191Z,0.40
2018-12-03T10:46:27.294Z,0.50
2018-12-03T10:51:30.417Z,0.40
2018-12-03T10:56:33.582Z,0.50
2018-12-03T11:01:42.151Z,0.50
2018-12-03T11:06:45.263Z,0.50
2018-12-03T11:11:48.987Z,0.50
2018-12-03T11:16:52.135Z,1.20
2018-12-03T11:21:55.258Z,0.50
2018-12-03T11:26:59.549Z,0.53
2018-12-03T11:32:02.663Z,0.50
2018-12-03T11:37:11.291Z,0.60
2018-12-03T11:42:14.422Z,0.57
2018-12-03T11:47:17.548Z,0.60
2018-12-03T11:52:20.682Z,0.43
2018-12-03T11:57:23.820Z,0.50
2018-12-03T12:02:26.930Z,0.80
2018-12-03T12:07:30.090Z,0.60
2018-12-03T12:12:33.204Z,0.80
2018-12-03T12:17:36.315Z,0.70
2018-12-03T12:22:39.447Z,0.63
2018-12-03T12:27:44.809Z,0.60
2018-12-03T12:32:47.921Z,0.67
2018-12-03T12:37:56.644Z,0.70
2018-12-03T12:42:54.247Z,0.87
2018-12-03T12:47:57.383Z,0.73
2018-12-03T12:53:00.531Z,0.77
2018-12-03T12:58:03.662Z,0.90
2018-12-03T13:03:06.978Z,0.57
2018-12-03T13:08:10.145Z,0.53
2018-12-03T13:13:13.271Z,0.60
2018-12-03T13:18:16.393Z,0.77
2018-12-03T13:23:19.541Z,0.60
2018-12-03T13:28:22.679Z,0.87
2018-12-03T13:33:25.815Z,3.10
2018-12-03T13:38:29.008Z,3.60
2018-12-03T13:43:32.134Z,1.53
2018-12-03T13:48:35.304Z,1.77
2018-12-03T13:53:38.446Z,1.40
2018-12-03T13:58:41.567Z,3.80
2018-12-03T14:03:44.679Z,1.43
2018-12-03T14:10:57.066Z,1.10
2018-12-03T14:16:07.967Z,1.00
2018-12-03T14:21:20.051Z,0.80
2018-12-03T14:26:23.200Z,0.60
2018-12-03T14:31:26.339Z,0.93
2018-12-03T14:36:29.482Z,0.60
2018-12-03T14:41:32.647Z,0.73
2018-12-03T14:46:35.795Z,0.70
2018-12-03T14:51:38.927Z,0.90
2018-12-03T14:56:42.037Z,0.97
2018-12-03T15:01:45.164Z,0.70
2018-12-03T15:06:48.379Z,0.57
2018-12-03T15:11:51.503Z,0.70
2018-12-03T15:16:54.765Z,0.80
2018-12-03T15:21:57.917Z,0.60
2018-12-03T15:27:01.103Z,1.20
2018-12-03T15:32:04.238Z,0.40
2018-12-03T15:37:07.362Z,0.57
2018-12-03T15:42:32.499Z,0.50
2018-12-03T15:47:35.642Z,0.87
2018-12-03T15:52:38.783Z,1.13
2018-12-03T15:57:41.902Z,1.20
2018-12-03T16:02:45.583Z,0.90
2018-12-03T16:07:48.710Z,0.70
2018-12-03T16:12:52.317Z,0.70
2018-12-03T16:17:55.465Z,0.90
2018-12-03T16:22:58.615Z,3.90
2018-12-03T16:28:01.739Z,2.60
2018-12-03T16:33:04.871Z,0.77
2018-12-03T16:38:08.013Z,1.67
2018-12-03T16:43:11.119Z,1.23
2018-12-03T16:48:14.515Z,1.20
2018-12-03T16:53:17.630Z,0.93
2018-12-03T16:58:20.794Z,1.00
2018-12-03T17:03:23.969Z,1.00
2018-12-03T17:08:27.101Z,1.27
2018-12-03T17:13:30.223Z,1.50
2018-12-03T17:18:33.454Z,1.10
2018-12-03T17:24:19.533Z,0.73
2018-12-03T17:29:22.651Z,0.63
2018-12-03T17:34:25.778Z,0.60
2018-12-03T17:39:28.941Z,0.60
2018-12-03T17:44:32.116Z,1.20
2018-12-03T17:49:35.222Z,0.90
2018-12-03T17:54:38.343Z,0.90
2018-12-03T17:59:41.464Z,1.10
2018-12-03T18:04:44.572Z,0.80
2018-12-03T18:09:48.703Z,1.27
2018-12-03T18:14:51.846Z,0.87
2018-12-03T18:19:54.966Z,0.90
2018-12-03T18:24:58.244Z,1.10
2018-12-03T18:30:01.375Z,1.00
2018-12-03T18:35:04.560Z,1.00
2018-12-03T18:40:09.190Z,1.00
2018-12-03T18:45:12.318Z,1.40
2018-12-03T18:50:22.318Z,1.37
2018-12-03T18:55:25.448Z,1.30
2018-12-03T19:00:28.603Z,1.23
2018-12-03T19:05:34.732Z,1.00
2018-12-03T19:10:37.859Z,1.30
2018-12-03T19:15:41.124Z,1.83
2018-12-03T19:20:44.243Z,1.60
2018-12-03T19:25:47.359Z,1.90
2018-12-03T19:30:50.462Z,1.57
2018-12-03T19:35:53.588Z,1.63
2018-12-03T19:40:56.775Z,1.83
2018-12-03T19:46:00.015Z,1.40
2018-12-03T19:51:03.111Z,2.07
2018-12-03T19:56:06.321Z,1.50
2018-12-03T20:01:09.416Z,1.87
2018-12-03T20:06:12.549Z,2.80
2018-12-03T20:11:15.670Z,2.13
2018-12-03T20:16:18.816Z,1.77
2018-12-03T20:21:24.018Z,3.33
2018-12-03T20:26:33.026Z,2.73
2018-12-03T20:31:52.739Z,2.70
2018-12-03T20:37:07.650Z,1.67
2018-12-03T20:42:10.778Z,1.00
2018-12-03T20:47:23.114Z,1.57
2018-12-03T20:52:28.690Z,1.53
2018-12-03T20:57:31.802Z,1.10
2018-12-03T21:02:34.915Z,1.10
2018-12-03T21:07:38.019Z,0.80
2018-12-03T21:12:41.131Z,0.93
2018-12-03T21:17:44.377Z,2.60
2018-12-03T21:22:47.478Z,2.83
2018-12-03T21:27:50.753Z,1.43
2018-12-03T21:32:53.867Z,0.70
2018-12-03T21:37:57.702Z,0.40
2018-12-03T21:43:00.818Z,0.47
2018-12-03T21:48:03.935Z,0.40
2018-12-03T21:53:07.075Z,0.50
2018-12-03T21:58:10.203Z,0.50
2018-12-03T22:03:13.322Z,0.60
2018-12-03T22:08:16.454Z,0.70
2018-12-03T22:13:19.584Z,0.70
2018-12-03T22:18:22.698Z,0.60
2018-12-03T22:23:25.811Z,0.60
2018-12-03T22:28:28.938Z,0.53
2018-12-03T22:33:32.059Z,1.03
2018-12-03T22:38:35.206Z,0.77
2018-12-03T22:43:38.319Z,0.60
2018-12-03T22:48:41.509Z,0.60
2018-12-03T22:53:44.615Z,0.60
2018-12-03T22:58:47.740Z,0.50
2018-12-03T23:03:51.129Z,0.40
2018-12-03T23:08:54.252Z,0.50
2018-12-03T23:13:57.489Z,0.50
2018-12-03T23:19:00.607Z,0.47
2018-12-03T23:24:03.724Z,0.40
2018-12-03T23:29:06.843Z,0.47
2018-12-03T23:34:09.963Z,0.40
2018-12-03T23:39:13.089Z,0.40
2018-12-03T23:44:16.205Z,0.60
2018-12-03T23:49:19.323Z,0.50
2018-12-03T23:54:22.450Z,0.40
2018-12-03T23:59:25.566Z,0.40
